createdAt,value
2022-08-09T00:00:27.764Z,2.40
2022-08-09T00:06:15.933Z,2.80
2022-08-09T00:10:55.416Z,2.95
2022-08-09T00:16:03.471Z,3.53
2022-08-09T00:21:09.707Z,2.60
2022-08-09T00:26:17.161Z,2.70
2022-08-09T00:31:58.195Z,3.00
2022-08-09T00:36:49.351Z,2.55
2022-08-09T00:44:14.737Z,3.78
2022-08-09T00:47:24.994Z,3.30
2022-08-09T00:52:31.087Z,3.58
2022-08-09T00:57:35.816Z,3.00
2022-08-09T01:02:47.569Z,3.10
2022-08-09T01:08:00.247Z,3.20
2022-08-09T01:13:13.483Z,3.28
2022-08-09T01:18:30.619Z,3.83
2022-08-09T01:24:01.699Z,3.20
2022-08-09T01:29:12.878Z,3.90
2022-08-09T01:34:22.500Z,3.90
2022-08-09T01:39:28.541Z,3.87
2022-08-09T01:44:34.998Z,4.47
2022-08-09T01:49:39.903Z,4.53
2022-08-09T01:54:48.611Z,5.00
2022-08-09T01:59:59.907Z,5.03
2022-08-09T02:05:15.590Z,5.10
2022-08-09T02:10:28.573Z,4.25
2022-08-09T02:15:49.392Z,4.28
2022-08-09T02:21:00.300Z,4.37
2022-08-09T02:26:05.968Z,4.65
2022-08-09T02:31:19.674Z,4.80
2022-08-09T02:36:32.304Z,5.03
2022-08-09T02:41:42.580Z,4.53
2022-08-09T02:46:52.264Z,4.85
2022-08-09T02:51:59.520Z,4.70
2022-08-09T02:57:13.596Z,4.30
2022-08-09T03:02:30.089Z,4.68
2022-08-09T03:07:37.296Z,3.97
2022-08-09T03:12:42.971Z,4.93
2022-08-09T03:17:58.706Z,5.07
2022-08-09T03:23:15.329Z,4.60
2022-08-09T03:28:27.360Z,5.28
2022-08-09T03:33:54.948Z,4.53
2022-08-09T03:38:57.834Z,5.80
2022-08-09T03:44:07.668Z,5.18
2022-08-09T03:49:17.391Z,5.35
2022-08-09T03:54:29.354Z,5.95
2022-08-09T03:59:52.783Z,6.20
2022-08-09T04:05:05.920Z,5.97
2022-08-09T04:10:10.887Z,5.70
2022-08-09T04:15:17.303Z,5.50
2022-08-09T04:20:41.833Z,5.82
2022-08-09T04:25:51.755Z,6.32
2022-08-09T04:30:56.539Z,5.87
2022-08-09T04:36:01.720Z,6.85
2022-08-09T04:41:07.124Z,6.97
2022-08-09T04:46:19.273Z,7.05
2022-08-09T04:51:40.664Z,7.47
2022-08-09T04:56:44.432Z,6.37
2022-08-09T05:01:48.980Z,6.53
2022-08-09T05:06:54.090Z,5.93
2022-08-09T05:11:59.903Z,6.95
2022-08-09T05:17:03.992Z,5.78
2022-08-09T05:22:34.915Z,6.97
2022-08-09T05:27:45.616Z,7.32
2022-08-09T05:32:53.180Z,5.80
2022-08-09T05:37:58.589Z,6.72
2022-08-09T05:43:02.277Z,6.82
2022-08-09T05:48:08.456Z,7.53
2022-08-09T05:53:31.559Z,7.40
2022-08-09T05:58:37.242Z,7.25
2022-08-09T06:03:44.062Z,7.70
2022-08-09T06:08:59.655Z,8.52
2022-08-09T06:14:03.809Z,7.28
2022-08-09T06:19:07.567Z,8.43
2022-08-09T06:24:12.699Z,6.78
2022-08-09T06:29:16.515Z,7.85
2022-08-09T06:34:22.390Z,7.40
2022-08-09T06:39:49.056Z,7.20
2022-08-09T06:44:54.502Z,6.28
2022-08-09T06:50:14.075Z,6.12
2022-08-09T06:55:24.202Z,6.62
2022-08-09T07:00:50.918Z,6.17
2022-08-09T07:06:02.199Z,6.45
2022-08-09T07:11:12.706Z,6.05
2022-08-09T07:16:42.092Z,5.87
2022-08-09T07:21:56.006Z,5.35
2022-08-09T07:27:03.900Z,4.65
2022-08-09T07:32:15.000Z,4.70
2022-08-09T07:37:19.659Z,4.43
2022-08-09T07:42:32.702Z,3.75
2022-08-09T07:47:39.454Z,4.22
2022-08-09T07:52:53.558Z,4.35
2022-08-09T07:58:04.852Z,3.28
2022-08-09T08:03:17.846Z,3.12
2022-08-09T08:09:02.634Z,2.75
2022-08-09T08:13:57.285Z,2.42
2022-08-09T08:19:03.179Z,2.62
2022-08-09T08:24:12.159Z,2.00
2022-08-09T08:29:27.388Z,2.12
2022-08-09T08:34:34.428Z,1.70
2022-08-09T08:39:43.723Z,1.30
2022-08-09T08:44:53.108Z,1.40
2022-08-09T08:49:58.104Z,1.75
2022-08-09T08:55:07.591Z,1.00
2022-08-09T09:00:20.742Z,1.10
2022-08-09T09:05:57.982Z,1.30
2022-08-09T09:10:57.585Z,0.90
2022-08-09T09:16:03.510Z,1.17
2022-08-09T09:21:08.184Z,1.20
2022-08-09T09:26:13.340Z,1.05
2022-08-09T09:32:07.078Z,1.30
2022-08-09T09:36:51.157Z,1.00
2022-08-09T09:41:58.993Z,0.95
2022-08-09T09:47:09.035Z,1.67
2022-08-09T09:52:33.519Z,0.75
2022-08-09T09:58:03.742Z,0.90
2022-08-09T10:03:11.426Z,0.70
2022-08-09T10:08:27.738Z,0.80
2022-08-09T10:13:43.344Z,0.82
2022-08-09T10:18:55.785Z,0.60
2022-08-09T10:24:05.061Z,1.12
2022-08-09T10:29:37.158Z,0.70
2022-08-09T10:34:35.985Z,0.77
2022-08-09T10:39:49.181Z,0.80
2022-08-09T10:44:58.688Z,0.68
2022-08-09T10:50:14.977Z,0.75
2022-08-09T10:55:23.814Z,0.60
2022-08-09T11:00:50.947Z,0.93
2022-08-09T11:06:22.917Z,0.50
2022-08-09T11:11:26.932Z,0.50
2022-08-09T11:16:41.028Z,0.70
2022-08-09T11:21:55.171Z,0.60
2022-08-09T11:28:05.324Z,0.57
2022-08-09T11:33:01.348Z,0.70
2022-08-09T11:38:18.342Z,0.70
2022-08-09T11:43:41.938Z,0.60
2022-08-09T11:48:50.129Z,0.60
2022-08-09T11:54:21.370Z,0.55
2022-08-09T11:59:33.664Z,0.70
2022-08-09T12:04:38.357Z,0.50
2022-08-09T12:09:50.918Z,0.50
2022-08-09T12:15:04.290Z,0.55
2022-08-09T12:20:19.800Z,0.60
2022-08-09T12:25:36.307Z,0.68
2022-08-09T12:30:42.945Z,0.70
2022-08-09T12:35:48.581Z,0.50
2022-08-09T12:40:56.836Z,0.60
2022-08-09T12:46:01.760Z,0.70
2022-08-09T12:51:07.900Z,0.50
2022-08-09T12:56:43.433Z,0.90
2022-08-09T13:01:42.864Z,0.65
2022-08-09T13:06:54.158Z,0.60
2022-08-09T13:12:04.250Z,0.70
2022-08-09T13:17:16.229Z,0.68
2022-08-09T13:22:38.385Z,0.68
2022-08-09T13:27:55.851Z,0.90
2022-08-09T13:33:00.167Z,0.75
2022-08-09T13:38:04.705Z,0.30
2022-08-09T13:43:22.615Z,0.47
2022-08-09T13:48:39.569Z,0.50
2022-08-09T13:53:46.182Z,0.50
2022-08-09T13:58:53.277Z,0.60
2022-08-09T14:04:02.931Z,0.45
2022-08-09T14:09:09.201Z,0.65
2022-08-09T14:14:26.885Z,0.60
2022-08-09T14:19:33.490Z,0.73
2022-08-09T14:24:46.895Z,0.68
2022-08-09T14:30:34.458Z,1.00
2022-08-09T14:35:22.610Z,0.68
2022-08-09T14:40:38.790Z,0.93
2022-08-09T14:46:57.638Z,0.55
2022-08-09T14:51:15.780Z,0.50
2022-08-09T14:56:19.651Z,0.30
2022-08-09T15:01:26.990Z,1.17
2022-08-09T15:06:30.811Z,0.68
2022-08-09T15:11:34.598Z,0.45
2022-08-09T15:16:40.044Z,0.40
2022-08-09T15:21:58.960Z,0.52
2022-08-09T15:27:06.075Z,0.55
2022-08-09T15:32:28.245Z,0.60
2022-08-09T15:37:57.330Z,0.60
2022-08-09T15:43:00.611Z,0.40
2022-08-09T15:48:20.236Z,0.70
2022-08-09T15:54:05.189Z,0.73
2022-08-09T15:58:56.321Z,0.93
2022-08-09T16:04:01.415Z,0.77
2022-08-09T16:09:06.904Z,0.43
2022-08-09T16:14:10.669Z,0.70
2022-08-09T16:19:19.222Z,0.97
2022-08-09T16:24:33.097Z,0.60
2022-08-09T16:29:49.788Z,0.90
2022-08-09T16:34:58.110Z,0.77
2022-08-09T16:40:05.291Z,0.40
2022-08-09T16:45:10.594Z,0.60
2022-08-09T16:50:32.462Z,0.70
2022-08-09T16:56:00.344Z,0.90
2022-08-09T17:01:01.735Z,0.50
2022-08-09T17:06:31.304Z,0.70
2022-08-09T17:11:41.138Z,0.43
2022-08-09T17:16:45.995Z,0.50
2022-08-09T17:21:54.692Z,0.60
2022-08-09T17:26:59.530Z,0.43
2022-08-09T17:32:03.299Z,0.60
2022-08-09T17:37:19.243Z,0.30
2022-08-09T17:42:41.984Z,0.50
2022-08-09T17:47:49.152Z,0.50
2022-08-09T17:52:54.794Z,1.25
2022-08-09T17:58:03.796Z,0.80
2022-08-09T18:03:09.477Z,0.70
2022-08-09T18:08:14.766Z,0.82
2022-08-09T18:13:43.389Z,0.40
2022-08-09T18:18:49.111Z,0.47
2022-08-09T18:24:12.582Z,0.50
2022-08-09T18:30:42.421Z,0.52
2022-08-09T18:34:43.441Z,0.45
2022-08-09T18:39:48.986Z,0.45
2022-08-09T18:44:53.684Z,0.68
2022-08-09T18:49:59.950Z,0.93
2022-08-09T18:55:13.622Z,0.80
2022-08-09T19:00:20.286Z,0.60
2022-08-09T19:05:41.423Z,0.70
2022-08-09T19:10:50.736Z,0.70
2022-08-09T19:15:55.613Z,0.85
2022-08-09T19:21:00.559Z,0.77
2022-08-09T19:26:06.132Z,0.70
2022-08-09T19:31:10.586Z,0.70
2022-08-09T19:36:14.368Z,0.60
2022-08-09T19:41:33.017Z,0.75
2022-08-09T19:46:50.921Z,0.60
2022-08-09T19:51:57.890Z,0.80
2022-08-09T19:57:02.991Z,0.60
2022-08-09T20:02:17.118Z,0.93
2022-08-09T20:07:57.070Z,0.73
2022-08-09T20:12:55.924Z,0.70
2022-08-09T20:18:04.778Z,1.33
2022-08-09T20:28:24.392Z,1.12
2022-08-09T20:33:39.107Z,0.88
2022-08-09T20:44:10.806Z,1.12
2022-08-09T20:49:15.954Z,0.80
2022-08-09T20:54:21.913Z,0.93
2022-08-09T21:00:19.229Z,0.80
2022-08-09T21:05:55.007Z,1.05
2022-08-09T21:10:18.649Z,0.88
2022-08-09T21:15:34.134Z,1.15
2022-08-09T21:20:38.663Z,0.80
2022-08-09T21:26:00.082Z,1.00
2022-08-09T21:31:19.489Z,1.00
2022-08-09T21:36:28.048Z,1.52
2022-08-09T21:42:03.810Z,1.05
2022-08-09T21:47:04.411Z,1.00
2022-08-09T21:52:14.914Z,1.10
2022-08-09T21:57:36.999Z,1.10
2022-08-09T22:02:51.284Z,1.27
2022-08-09T22:08:02.415Z,0.95
2022-08-09T22:13:11.416Z,1.35
2022-08-09T22:18:18.628Z,1.35
2022-08-09T22:23:22.364Z,1.15
2022-08-09T22:28:29.858Z,1.00
2022-08-09T22:33:48.891Z,1.10
2022-08-09T22:38:59.315Z,1.10
2022-08-09T22:44:04.904Z,1.08
2022-08-09T22:49:14.783Z,0.95
2022-08-09T22:54:21.224Z,1.00
2022-08-09T22:59:57.402Z,0.90
2022-08-09T23:04:53.785Z,1.00
2022-08-09T23:09:58.264Z,1.20
2022-08-09T23:15:03.630Z,0.88
2022-08-09T23:20:11.783Z,1.00
2022-08-09T23:25:15.644Z,0.95
2022-08-09T23:30:19.952Z,0.80
2022-08-09T23:35:25.005Z,1.00
2022-08-09T23:40:28.967Z,0.93
2022-08-09T23:45:37.164Z,0.88
2022-08-09T23:50:46.670Z,1.08
2022-08-09T23:55:55.359Z,0.97
